createdAt,value
2022-08-04T00:00:02.646Z,50.23
2022-08-04T00:01:02.727Z,52.78
2022-08-04T00:02:02.702Z,50.26
2022-08-04T00:03:02.624Z,51.56
2022-08-04T00:04:02.630Z,50.92
2022-08-04T00:05:02.612Z,50.75
2022-08-04T00:06:02.594Z,50.76
2022-08-04T00:07:02.588Z,50.79
2022-08-04T00:08:02.583Z,50.81
2022-08-04T00:09:02.591Z,50.70
2022-08-04T00:10:02.567Z,50.76
2022-08-04T00:11:02.562Z,50.74
2022-08-04T00:12:02.549Z,50.72
2022-08-04T00:13:02.541Z,50.62
2022-08-04T00:14:03.127Z,50.72
2022-08-04T00:15:02.531Z,50.70
2022-08-04T00:16:03.356Z,50.81
2022-08-04T00:17:02.514Z,51.01
2022-08-04T00:18:02.507Z,50.97
2022-08-04T00:19:02.524Z,50.90
2022-08-04T00:20:02.493Z,50.71
2022-08-04T00:21:02.490Z,50.79
2022-08-04T00:22:02.469Z,50.93
2022-08-04T00:23:02.468Z,50.83
2022-08-04T00:24:10.480Z,50.89
2022-08-04T00:25:03.495Z,51.00
2022-08-04T00:26:02.444Z,51.02
2022-08-04T00:27:02.441Z,51.07
2022-08-04T00:28:02.428Z,51.00
2022-08-04T00:29:02.440Z,51.03
2022-08-04T00:30:02.414Z,51.10
2022-08-04T00:31:02.404Z,51.67
2022-08-04T00:32:02.405Z,50.82
2022-08-04T00:33:02.392Z,51.14
2022-08-04T00:34:02.402Z,51.14
2022-08-04T00:35:02.379Z,51.36
2022-08-04T00:36:02.367Z,50.92
2022-08-04T00:37:02.383Z,50.76
2022-08-04T00:38:02.356Z,50.88
2022-08-04T00:39:02.560Z,50.63
2022-08-04T00:40:02.345Z,50.80
2022-08-04T00:41:02.336Z,50.88
2022-08-04T00:42:02.373Z,50.88
2022-08-04T00:43:02.320Z,52.31
2022-08-04T00:44:02.305Z,50.83
2022-08-04T00:45:02.320Z,50.84
2022-08-04T00:46:16.815Z,51.59
2022-08-04T00:47:03.290Z,51.14
2022-08-04T00:48:02.278Z,52.13
2022-08-04T00:49:02.275Z,50.88
2022-08-04T00:50:02.283Z,51.08
2022-08-04T00:51:02.262Z,51.14
2022-08-04T00:52:32.486Z,51.28
2022-08-04T00:53:03.270Z,51.94
2022-08-04T00:54:02.226Z,51.21
2022-08-04T00:55:05.440Z,51.29
2022-08-04T00:56:03.219Z,52.07
2022-08-04T00:57:02.221Z,51.25
2022-08-04T00:58:02.205Z,53.09
2022-08-04T00:59:02.197Z,51.13
2022-08-04T01:00:02.207Z,51.96
2022-08-04T01:01:02.219Z,51.50
2022-08-04T01:02:02.170Z,52.17
2022-08-04T01:03:02.172Z,51.49
2022-08-04T01:04:02.157Z,52.37
2022-08-04T01:05:02.169Z,51.60
2022-08-04T01:06:02.140Z,51.26
2022-08-04T01:07:02.140Z,52.55
2022-08-04T01:08:02.142Z,51.43
2022-08-04T01:09:02.132Z,51.31
2022-08-04T01:10:02.127Z,51.02
2022-08-04T01:11:02.105Z,51.13
2022-08-04T01:12:02.098Z,51.32
2022-08-04T01:13:02.092Z,51.24
2022-08-04T01:14:03.086Z,51.09
2022-08-04T01:15:02.104Z,51.21
2022-08-04T01:16:02.066Z,52.71
2022-08-04T01:17:02.061Z,51.31
2022-08-04T01:18:02.048Z,51.28
2022-08-04T01:19:02.044Z,51.25
2022-08-04T01:20:02.056Z,51.08
2022-08-04T01:21:02.031Z,51.22
2022-08-04T01:22:02.020Z,51.37
2022-08-04T01:23:02.083Z,51.09
2022-08-04T01:24:02.008Z,51.21
2022-08-04T01:25:02.204Z,52.30
2022-08-04T01:26:01.983Z,51.38
2022-08-04T01:27:01.984Z,51.30
2022-08-04T01:28:01.976Z,51.39
2022-08-04T01:29:01.971Z,51.29
2022-08-04T01:30:01.981Z,51.33
2022-08-04T01:31:01.951Z,52.88
2022-08-04T01:32:01.960Z,53.06
2022-08-04T01:33:01.936Z,51.25
2022-08-04T01:34:04.455Z,51.10
2022-08-04T01:35:01.939Z,51.22
2022-08-04T01:36:01.940Z,51.25
2022-08-04T01:37:01.901Z,51.18
2022-08-04T01:38:01.897Z,51.54
2022-08-04T01:39:02.934Z,51.45
2022-08-04T01:40:01.895Z,51.47
2022-08-04T01:41:01.887Z,51.36
2022-08-04T01:42:01.861Z,51.58
2022-08-04T01:43:01.864Z,52.95
2022-08-04T01:44:01.849Z,51.55
2022-08-04T01:45:01.862Z,51.19
2022-08-04T01:46:01.831Z,50.94
2022-08-04T01:47:01.881Z,50.90
2022-08-04T01:48:01.824Z,51.16
2022-08-04T01:49:01.812Z,51.40
2022-08-04T01:50:01.820Z,51.89
2022-08-04T01:51:01.795Z,51.63
2022-08-04T01:52:01.786Z,51.32
2022-08-04T01:53:01.784Z,51.27
2022-08-04T01:54:01.775Z,51.41
2022-08-04T01:55:01.780Z,52.42
2022-08-04T01:56:01.766Z,51.30
2022-08-04T01:57:01.745Z,51.26
2022-08-04T01:58:02.743Z,51.53
2022-08-04T01:59:01.732Z,51.31
2022-08-04T02:00:01.822Z,51.20
2022-08-04T02:01:01.776Z,51.16
2022-08-04T02:02:01.830Z,51.51
2022-08-04T02:03:01.846Z,51.38
2022-08-04T02:04:20.504Z,51.46
2022-08-04T02:05:02.708Z,51.64
2022-08-04T02:06:03.345Z,51.32
2022-08-04T02:07:01.669Z,51.06
2022-08-04T02:08:01.661Z,51.15
2022-08-04T02:09:01.652Z,51.21
2022-08-04T02:10:01.694Z,51.19
2022-08-04T02:11:01.631Z,51.21
2022-08-04T02:12:01.632Z,52.53
2022-08-04T02:13:01.614Z,52.26
2022-08-04T02:14:01.614Z,51.03
2022-08-04T02:15:01.658Z,51.72
2022-08-04T02:16:01.597Z,51.84
2022-08-04T02:17:01.583Z,52.04
2022-08-04T02:18:01.578Z,51.55
2022-08-04T02:19:01.564Z,51.73
2022-08-04T02:20:01.578Z,52.57
2022-08-04T02:21:01.553Z,51.67
2022-08-04T02:22:01.549Z,51.77
2022-08-04T02:23:01.538Z,53.22
2022-08-04T02:24:01.536Z,52.07
2022-08-04T02:25:01.543Z,51.97
2022-08-04T02:26:01.516Z,51.54
2022-08-04T02:27:01.507Z,51.45
2022-08-04T02:28:01.561Z,51.72
2022-08-04T02:29:01.494Z,51.51
2022-08-04T02:30:01.512Z,51.77
2022-08-04T02:31:01.479Z,51.63
2022-08-04T02:32:01.485Z,51.88
2022-08-04T02:33:01.459Z,53.05
2022-08-04T02:34:01.463Z,53.44
2022-08-04T02:35:01.468Z,52.59
2022-08-04T02:36:02.238Z,52.88
2022-08-04T02:37:01.427Z,51.68
2022-08-04T02:38:01.427Z,51.34
2022-08-04T02:39:01.476Z,53.18
2022-08-04T02:40:01.434Z,52.28
2022-08-04T02:41:01.411Z,51.37
2022-08-04T02:42:01.397Z,52.59
2022-08-04T02:43:01.386Z,51.51
2022-08-04T02:44:01.381Z,51.68
2022-08-04T02:45:01.386Z,51.86
2022-08-04T02:46:01.365Z,51.84
2022-08-04T02:47:01.369Z,51.58
2022-08-04T02:48:19.385Z,51.86
2022-08-04T02:49:02.346Z,53.85
2022-08-04T02:50:01.378Z,51.35
2022-08-04T02:51:01.329Z,51.67
2022-08-04T02:52:01.320Z,51.48
2022-08-04T02:53:01.305Z,52.57
2022-08-04T02:54:01.336Z,51.78
2022-08-04T02:55:01.313Z,52.02
2022-08-04T02:56:01.290Z,51.94
2022-08-04T02:57:01.280Z,51.66
2022-08-04T02:58:01.268Z,54.67
2022-08-04T02:59:01.259Z,52.24
2022-08-04T03:00:01.269Z,52.11
2022-08-04T03:01:01.295Z,51.72
2022-08-04T03:02:01.240Z,52.00
2022-08-04T03:03:01.227Z,52.08
2022-08-04T03:04:01.224Z,52.51
2022-08-04T03:05:01.229Z,52.58
2022-08-04T03:06:01.932Z,52.55
2022-08-04T03:07:01.233Z,54.85
2022-08-04T03:08:01.195Z,53.70
2022-08-04T03:09:01.175Z,54.19
2022-08-04T03:10:01.281Z,53.00
2022-08-04T03:11:01.192Z,53.08
2022-08-04T03:12:01.163Z,52.84
2022-08-04T03:13:01.152Z,53.44
2022-08-04T03:14:01.150Z,54.85
2022-08-04T03:15:01.152Z,53.80
2022-08-04T03:16:01.135Z,53.22
2022-08-04T03:17:01.125Z,55.33
2022-08-04T03:18:01.114Z,55.91
2022-08-04T03:19:01.111Z,54.00
2022-08-04T03:20:01.479Z,52.94
2022-08-04T03:21:01.088Z,53.93
2022-08-04T03:22:01.082Z,53.19
2022-08-04T03:23:13.131Z,53.81
2022-08-04T03:24:02.071Z,54.88
2022-08-04T03:25:01.074Z,52.65
2022-08-04T03:26:01.056Z,54.41
2022-08-04T03:27:01.044Z,52.98
2022-08-04T03:28:01.039Z,54.34
2022-08-04T03:29:01.025Z,52.64
2022-08-04T03:30:01.039Z,54.72
2022-08-04T03:31:01.008Z,55.39
2022-08-04T03:32:01.000Z,55.06
2022-08-04T03:33:01.050Z,56.10
2022-08-04T03:34:00.991Z,53.00
2022-08-04T03:35:01.003Z,53.56
2022-08-04T03:36:00.974Z,54.55
2022-08-04T03:37:00.961Z,53.98
2022-08-04T03:38:00.955Z,53.17
2022-08-04T03:39:01.031Z,52.71
2022-08-04T03:40:00.942Z,52.94
2022-08-04T03:41:00.933Z,54.40
2022-08-04T03:42:04.338Z,57.86
2022-08-04T03:43:00.921Z,53.58
2022-08-04T03:44:00.912Z,56.24
2022-08-04T03:45:00.910Z,55.21
2022-08-04T03:46:00.894Z,55.25
2022-08-04T03:47:00.888Z,54.88
2022-08-04T03:48:00.922Z,55.67
2022-08-04T03:49:00.879Z,55.29
2022-08-04T03:50:00.879Z,55.95
2022-08-04T03:51:00.856Z,55.49
2022-08-04T03:52:00.848Z,53.56
2022-08-04T03:53:00.845Z,54.17
2022-08-04T03:54:00.849Z,53.55
2022-08-04T03:55:00.822Z,53.77
2022-08-04T03:56:00.814Z,54.40
2022-08-04T03:57:00.803Z,56.41
2022-08-04T03:58:00.806Z,56.44
2022-08-04T03:59:00.800Z,54.50
2022-08-04T04:00:00.801Z,55.55
2022-08-04T04:01:00.774Z,55.50
2022-08-04T04:02:02.659Z,54.81
2022-08-04T04:03:01.769Z,54.58
2022-08-04T04:04:00.752Z,54.63
2022-08-04T04:05:00.940Z,54.49
2022-08-04T04:06:03.133Z,52.47
2022-08-04T04:07:00.731Z,52.96
2022-08-04T04:08:01.930Z,54.87
2022-08-04T04:09:00.720Z,55.72
2022-08-04T04:10:06.181Z,53.46
2022-08-04T04:11:01.703Z,55.04
2022-08-04T04:12:00.703Z,57.13
2022-08-04T04:13:00.690Z,54.35
2022-08-04T04:14:00.685Z,53.71
2022-08-04T04:15:00.685Z,54.50
2022-08-04T04:16:01.410Z,55.21
2022-08-04T04:17:00.657Z,52.76
2022-08-04T04:18:00.652Z,55.85
2022-08-04T04:19:00.638Z,59.07
2022-08-04T04:20:00.653Z,57.17
2022-08-04T04:21:00.619Z,54.07
2022-08-04T04:22:00.629Z,54.01
2022-08-04T04:23:00.611Z,54.94
2022-08-04T04:24:00.607Z,53.88
2022-08-04T04:25:00.610Z,55.44
2022-08-04T04:26:00.586Z,53.59
2022-08-04T04:27:00.583Z,52.37
2022-08-04T04:28:45.220Z,54.92
2022-08-04T04:29:03.401Z,56.39
2022-08-04T04:30:00.628Z,55.71
2022-08-04T04:31:00.548Z,52.53
2022-08-04T04:32:00.548Z,55.44
2022-08-04T04:33:00.532Z,53.29
2022-08-04T04:34:00.531Z,53.75
2022-08-04T04:35:00.527Z,54.68
2022-08-04T04:36:00.509Z,54.23
2022-08-04T04:37:00.499Z,54.75
2022-08-04T04:38:00.519Z,56.25
2022-08-04T04:39:00.518Z,56.96
2022-08-04T04:40:03.371Z,55.40
2022-08-04T04:41:00.464Z,54.88
2022-08-04T04:42:00.465Z,56.25
2022-08-04T04:43:00.448Z,52.97
2022-08-04T04:44:00.448Z,56.76
2022-08-04T04:45:00.444Z,55.74
2022-08-04T04:46:00.428Z,54.88
2022-08-04T04:47:00.422Z,57.23
2022-08-04T04:48:08.257Z,56.75
2022-08-04T04:49:01.409Z,57.49
2022-08-04T04:50:00.421Z,56.63
2022-08-04T04:51:00.389Z,54.44
2022-08-04T04:52:00.383Z,56.23
2022-08-04T04:53:00.372Z,55.99
2022-08-04T04:54:00.864Z,55.07
2022-08-04T04:55:00.374Z,55.97
2022-08-04T04:56:00.353Z,55.22
2022-08-04T04:57:00.346Z,53.01
2022-08-04T04:58:00.342Z,54.00
2022-08-04T04:59:00.334Z,54.97
2022-08-04T05:00:00.352Z,57.10
2022-08-04T05:01:00.342Z,59.55
2022-08-04T05:02:00.361Z,57.24
2022-08-04T05:03:02.294Z,53.31
2022-08-04T05:04:00.297Z,55.46
2022-08-04T05:05:00.297Z,52.91
2022-08-04T05:06:00.287Z,57.91
2022-08-04T05:07:00.268Z,53.97
2022-08-04T05:08:00.313Z,54.03
2022-08-04T05:09:01.260Z,58.31
2022-08-04T05:10:00.277Z,57.87
2022-08-04T05:11:00.243Z,56.29
2022-08-04T05:12:00.233Z,56.33
2022-08-04T05:14:37.889Z,55.88
2022-08-04T05:14:38.962Z,57.63
2022-08-04T05:15:01.226Z,56.01
2022-08-04T05:16:00.382Z,56.09
2022-08-04T05:17:00.196Z,54.88
2022-08-04T05:18:00.191Z,54.22
2022-08-04T05:19:00.171Z,55.03
2022-08-04T05:20:00.181Z,54.62
2022-08-04T05:21:00.159Z,55.62
2022-08-04T05:22:00.153Z,55.63
2022-08-04T05:23:00.141Z,57.18
2022-08-04T05:24:00.143Z,56.60
2022-08-04T05:25:00.142Z,55.70
2022-08-04T05:26:00.742Z,59.40
2022-08-04T05:27:00.118Z,54.43
2022-08-04T05:28:00.107Z,54.71
2022-08-04T05:29:00.148Z,58.55
2022-08-04T05:30:00.139Z,55.02
2022-08-04T05:31:00.103Z,54.02
2022-08-04T05:32:00.081Z,57.31
2022-08-04T05:33:00.278Z,54.03
2022-08-04T05:34:00.088Z,56.04
2022-08-04T05:35:00.050Z,56.06
2022-08-04T05:36:19.195Z,54.99
2022-08-04T05:37:01.034Z,58.12
2022-08-04T05:38:01.222Z,54.30
2022-08-04T05:39:00.222Z,56.93
2022-08-04T05:40:00.017Z,56.30
2022-08-04T05:41:00.021Z,58.30
2022-08-04T05:42:04.160Z,57.00
2022-08-04T05:42:59.993Z,55.52
2022-08-04T05:43:59.982Z,55.88
2022-08-04T05:44:59.974Z,58.26
2022-08-04T05:45:59.977Z,54.92
2022-08-04T05:46:59.961Z,57.10
2022-08-04T05:47:59.955Z,53.55
2022-08-04T05:48:59.947Z,54.03
2022-08-04T05:50:02.017Z,52.38
2022-08-04T05:51:01.170Z,57.08
2022-08-04T05:51:59.919Z,51.25
2022-08-04T05:53:01.349Z,53.97
2022-08-04T05:53:59.900Z,53.32
2022-08-04T05:54:59.903Z,55.61
2022-08-04T05:56:00.159Z,53.34
2022-08-04T05:56:59.880Z,54.95
2022-08-04T05:57:59.871Z,56.39
2022-08-04T05:58:59.872Z,54.42
2022-08-04T05:59:59.948Z,53.69
2022-08-04T06:00:59.871Z,52.08
2022-08-04T06:01:59.869Z,52.15
2022-08-04T06:02:59.838Z,56.03
2022-08-04T06:03:59.828Z,51.48
2022-08-04T06:04:59.876Z,51.14
2022-08-04T06:05:59.820Z,54.72
2022-08-04T06:06:59.817Z,55.30
2022-08-04T06:08:04.535Z,52.78
2022-08-04T06:09:00.800Z,54.52
2022-08-04T06:09:59.874Z,55.81
2022-08-04T06:10:59.795Z,53.96
2022-08-04T06:12:03.809Z,55.83
2022-08-04T06:12:59.763Z,52.63
2022-08-04T06:13:59.755Z,54.59
2022-08-04T06:14:59.913Z,54.15
2022-08-04T06:15:59.759Z,53.35
2022-08-04T06:16:59.817Z,52.11
2022-08-04T06:18:33.309Z,54.08
2022-08-04T06:20:00.893Z,53.68
2022-08-04T06:20:19.548Z,55.47
2022-08-04T06:21:00.908Z,56.23
2022-08-04T06:21:59.693Z,53.77
2022-08-04T06:22:59.685Z,53.79
2022-08-04T06:24:04.270Z,53.63
2022-08-04T06:24:59.671Z,55.25
2022-08-04T06:25:59.673Z,54.82
2022-08-04T06:26:59.657Z,56.83
2022-08-04T06:27:59.671Z,53.87
2022-08-04T06:28:59.741Z,53.94
2022-08-04T06:29:59.648Z,54.40
2022-08-04T06:30:59.624Z,53.57
2022-08-04T06:32:27.333Z,53.10
2022-08-04T06:33:03.637Z,52.60
2022-08-04T06:33:59.598Z,54.78
2022-08-04T06:34:59.610Z,57.09
2022-08-04T06:35:59.586Z,56.12
2022-08-04T06:36:59.583Z,53.86
2022-08-04T06:38:01.114Z,55.76
2022-08-04T06:39:00.120Z,55.62
2022-08-04T06:39:59.553Z,52.27
2022-08-04T06:40:59.550Z,51.41
2022-08-04T06:42:21.321Z,51.96
2022-08-04T06:43:00.540Z,53.24
2022-08-04T06:43:59.543Z,52.84
2022-08-04T06:44:59.525Z,54.98
2022-08-04T06:45:59.509Z,52.26
2022-08-04T06:46:59.509Z,53.22
2022-08-04T06:47:59.510Z,53.69
2022-08-04T06:48:59.513Z,54.79
2022-08-04T06:51:25.815Z,51.77
2022-08-04T06:51:32.823Z,52.78
2022-08-04T06:52:00.464Z,52.92
2022-08-04T06:52:59.530Z,53.94
2022-08-04T06:53:59.469Z,52.25
2022-08-04T06:54:59.449Z,52.37
2022-08-04T06:55:59.431Z,50.04
2022-08-04T06:56:59.431Z,49.98
2022-08-04T06:58:02.779Z,52.93
2022-08-04T06:58:59.430Z,54.50
2022-08-04T06:59:59.427Z,54.61
2022-08-04T07:00:59.398Z,53.56
2022-08-04T07:01:59.459Z,51.07
2022-08-04T07:02:59.384Z,51.05
2022-08-04T07:03:59.382Z,54.01
2022-08-04T07:04:59.369Z,51.96
2022-08-04T07:05:59.364Z,52.44
2022-08-04T07:07:00.358Z,52.60
2022-08-04T07:07:59.354Z,51.04
2022-08-04T07:08:59.359Z,51.57
2022-08-04T07:09:59.328Z,54.04
2022-08-04T07:10:59.329Z,48.86
2022-08-04T07:11:59.317Z,51.81
2022-08-04T07:12:59.312Z,53.61
2022-08-04T07:13:59.321Z,50.63
2022-08-04T07:14:59.299Z,49.23
2022-08-04T07:15:59.300Z,52.06
2022-08-04T07:16:59.291Z,50.04
2022-08-04T07:17:59.289Z,45.56
2022-08-04T07:18:59.283Z,47.84
2022-08-04T07:20:00.305Z,50.87
2022-08-04T07:20:59.253Z,52.46
2022-08-04T07:22:16.307Z,51.26
2022-08-04T07:23:00.240Z,45.63
2022-08-04T07:23:59.241Z,48.24
2022-08-04T07:24:59.228Z,45.36
2022-08-04T07:26:12.428Z,47.18
2022-08-04T07:27:00.212Z,47.63
2022-08-04T07:27:59.193Z,48.61
2022-08-04T07:28:59.202Z,47.96
2022-08-04T07:29:59.183Z,49.98
2022-08-04T07:30:59.174Z,49.16
2022-08-04T07:31:59.163Z,48.77
2022-08-04T07:32:59.165Z,47.67
2022-08-04T07:34:20.694Z,46.26
2022-08-04T07:35:00.152Z,47.28
2022-08-04T07:36:04.768Z,51.89
2022-08-04T07:37:00.135Z,49.16
2022-08-04T07:37:59.125Z,49.74
2022-08-04T07:38:59.176Z,51.13
2022-08-04T07:39:59.170Z,52.17
2022-08-04T07:40:59.104Z,45.43
2022-08-04T07:41:59.119Z,51.99
2022-08-04T07:42:59.089Z,49.86
2022-08-04T07:43:59.094Z,45.89
2022-08-04T07:44:59.080Z,48.30
2022-08-04T07:45:59.069Z,50.49
2022-08-04T07:46:59.055Z,49.72
2022-08-04T07:48:05.077Z,49.48
2022-08-04T07:49:00.070Z,48.66
2022-08-04T07:49:59.033Z,45.18
2022-08-04T07:50:59.032Z,46.71
2022-08-04T07:51:59.022Z,47.40
2022-08-04T07:53:22.701Z,52.07
2022-08-04T07:54:00.026Z,46.20
2022-08-04T07:54:58.997Z,51.50
2022-08-04T07:55:58.993Z,46.95
2022-08-04T07:56:58.990Z,52.35
2022-08-04T07:57:58.978Z,46.98
2022-08-04T07:58:58.987Z,52.58
2022-08-04T07:59:58.957Z,47.97
2022-08-04T08:00:58.958Z,46.98
2022-08-04T08:01:58.952Z,44.68
2022-08-04T08:02:58.991Z,47.49
2022-08-04T08:03:59.103Z,47.27
2022-08-04T08:04:59.008Z,40.94
2022-08-04T08:06:31.691Z,46.79
2022-08-04T08:06:59.922Z,46.59
2022-08-04T08:07:58.913Z,53.75
2022-08-04T08:08:58.914Z,47.87
2022-08-04T08:09:58.890Z,48.12
2022-08-04T08:10:58.895Z,50.16
2022-08-04T08:12:38.043Z,46.30
2022-08-04T08:12:59.869Z,44.34
2022-08-04T08:13:58.862Z,44.92
2022-08-04T08:14:58.855Z,50.76
2022-08-04T08:15:58.844Z,50.38
2022-08-04T08:16:58.840Z,45.35
2022-08-04T08:18:00.747Z,47.74
2022-08-04T08:18:58.843Z,44.66
2022-08-04T08:19:58.809Z,44.37
2022-08-04T08:20:58.820Z,48.17
2022-08-04T08:22:00.502Z,46.24
2022-08-04T08:22:58.794Z,46.69
2022-08-04T08:23:58.803Z,47.65
2022-08-04T08:24:58.781Z,50.16
2022-08-04T08:25:58.770Z,52.23
2022-08-04T08:26:58.770Z,49.48
2022-08-04T08:27:58.759Z,47.99
2022-08-04T08:28:58.773Z,48.07
2022-08-04T08:29:58.741Z,45.90
2022-08-04T08:30:59.442Z,40.15
2022-08-04T08:32:02.712Z,46.60
2022-08-04T08:32:59.747Z,46.00
2022-08-04T08:33:58.740Z,41.52
2022-08-04T08:34:58.712Z,46.58
2022-08-04T08:35:58.700Z,50.97
2022-08-04T08:36:58.697Z,47.68
2022-08-04T08:37:58.695Z,46.66
2022-08-04T08:38:58.726Z,47.68
2022-08-04T08:39:58.685Z,49.31
2022-08-04T08:40:58.670Z,48.91
2022-08-04T08:41:58.660Z,43.21
2022-08-04T08:42:58.652Z,46.41
2022-08-04T08:44:06.441Z,44.98
2022-08-04T08:44:59.655Z,44.07
2022-08-04T08:45:58.630Z,45.81
2022-08-04T08:46:58.625Z,47.74
2022-08-04T08:48:06.349Z,46.13
2022-08-04T08:48:59.613Z,46.82
2022-08-04T08:50:01.007Z,42.23
2022-08-04T08:50:59.598Z,46.60
2022-08-04T08:51:58.593Z,49.38
2022-08-04T08:53:02.204Z,43.99
2022-08-04T08:53:58.571Z,43.92
2022-08-04T08:54:58.568Z,43.72
2022-08-04T08:55:58.558Z,47.21
2022-08-04T08:56:58.669Z,45.83
2022-08-04T08:58:00.236Z,41.02
2022-08-04T08:58:58.541Z,50.36
2022-08-04T08:59:58.536Z,45.04
2022-08-04T09:00:58.533Z,46.03
2022-08-04T09:01:58.578Z,43.86
2022-08-04T09:03:04.037Z,43.46
2022-08-04T09:03:59.506Z,41.95
2022-08-04T09:04:58.498Z,44.99
2022-08-04T09:05:58.529Z,38.38
2022-08-04T09:06:58.598Z,39.22
2022-08-04T09:07:58.494Z,45.83
2022-08-04T09:08:58.487Z,41.64
2022-08-04T09:09:58.497Z,45.57
2022-08-04T09:10:58.464Z,46.33
2022-08-04T09:11:58.455Z,37.53
2022-08-04T09:12:58.465Z,46.23
2022-08-04T09:13:58.510Z,41.67
2022-08-04T09:14:58.435Z,48.70
2022-08-04T09:15:58.427Z,47.93
2022-08-04T09:16:58.424Z,44.37
2022-08-04T09:17:58.426Z,36.09
2022-08-04T09:18:58.412Z,47.41
2022-08-04T09:19:58.404Z,43.55
2022-08-04T09:20:58.398Z,41.22
2022-08-04T09:21:58.389Z,44.20
2022-08-04T09:22:58.411Z,40.18
2022-08-04T09:23:58.377Z,44.90
2022-08-04T09:24:58.390Z,47.16
2022-08-04T09:25:58.369Z,44.79
2022-08-04T09:27:00.014Z,41.27
2022-08-04T09:28:01.691Z,40.49
2022-08-04T09:28:59.367Z,41.28
2022-08-04T09:29:58.344Z,45.82
2022-08-04T09:30:58.338Z,46.96
2022-08-04T09:32:06.456Z,43.60
2022-08-04T09:32:59.347Z,38.11
2022-08-04T09:33:58.332Z,44.78
2022-08-04T09:35:03.403Z,42.58
2022-08-04T09:35:59.348Z,44.91
2022-08-04T09:36:58.305Z,45.13
2022-08-04T09:37:58.331Z,39.06
2022-08-04T09:38:58.348Z,42.61
2022-08-04T09:39:58.275Z,43.49
2022-08-04T09:40:58.681Z,42.06
2022-08-04T09:41:58.269Z,46.51
2022-08-04T09:42:58.263Z,42.78
2022-08-04T09:44:49.760Z,42.21
2022-08-04T09:45:06.465Z,42.51
2022-08-04T09:45:59.313Z,39.86
2022-08-04T09:46:59.767Z,43.00
2022-08-04T09:47:58.233Z,44.11
2022-08-04T09:48:58.248Z,41.18
2022-08-04T09:49:58.223Z,52.28
2022-08-04T09:50:58.216Z,49.11
2022-08-04T09:51:59.755Z,49.41
2022-08-04T09:52:58.210Z,46.43
2022-08-04T09:53:58.211Z,40.33
2022-08-04T09:54:58.199Z,38.22
2022-08-04T09:56:02.846Z,44.23
2022-08-04T09:56:59.184Z,41.42
2022-08-04T09:57:58.169Z,44.45
2022-08-04T09:58:58.185Z,44.86
2022-08-04T09:59:58.159Z,41.73
2022-08-04T10:00:58.176Z,41.59
2022-08-04T10:01:58.966Z,42.23
2022-08-04T10:02:58.216Z,46.68
2022-08-04T10:03:58.154Z,43.86
2022-08-04T10:04:58.148Z,44.47
2022-08-04T10:05:58.138Z,45.65
2022-08-04T10:06:58.130Z,44.12
2022-08-04T10:07:59.691Z,40.05
2022-08-04T10:08:59.135Z,43.92
2022-08-04T10:09:58.116Z,44.09
2022-08-04T10:10:58.116Z,34.72
2022-08-04T10:11:58.110Z,41.23
2022-08-04T10:12:58.097Z,39.65
2022-08-04T10:13:58.124Z,43.84
2022-08-04T10:14:58.086Z,43.33
2022-08-04T10:15:58.089Z,46.24
2022-08-04T10:16:58.092Z,45.09
2022-08-04T10:17:58.083Z,37.18
2022-08-04T10:18:58.094Z,40.44
2022-08-04T10:19:59.116Z,39.28
2022-08-04T10:21:02.525Z,42.19
2022-08-04T10:21:59.469Z,45.32
2022-08-04T10:23:11.004Z,45.21
2022-08-04T10:24:00.042Z,43.42
2022-08-04T10:24:58.046Z,44.58
2022-08-04T10:26:07.757Z,33.65
2022-08-04T10:26:59.033Z,37.82
2022-08-04T10:27:58.041Z,43.85
2022-08-04T10:28:58.052Z,40.67
2022-08-04T10:29:58.062Z,36.70
2022-08-04T10:30:58.025Z,31.35
2022-08-04T10:31:58.028Z,40.81
2022-08-04T10:32:58.016Z,42.49
2022-08-04T10:33:58.026Z,42.08
2022-08-04T10:34:58.017Z,43.69
2022-08-04T10:35:58.009Z,40.76
2022-08-04T10:36:58.004Z,44.94
2022-08-04T10:38:01.220Z,40.47
2022-08-04T10:38:58.044Z,44.24
2022-08-04T10:39:58.020Z,48.48
2022-08-04T10:40:57.981Z,38.36
2022-08-04T10:42:00.043Z,41.05
2022-08-04T10:42:57.971Z,41.16
2022-08-04T10:43:57.988Z,44.41
2022-08-04T10:44:58.331Z,36.90
2022-08-04T10:45:58.448Z,42.49
2022-08-04T10:46:57.953Z,37.71
2022-08-04T10:47:57.960Z,42.71
2022-08-04T10:48:57.963Z,46.71
2022-08-04T10:49:57.950Z,42.70
2022-08-04T10:50:57.944Z,44.91
2022-08-04T10:51:59.583Z,43.30
2022-08-04T10:52:57.935Z,46.25
2022-08-04T10:53:58.061Z,33.03
2022-08-04T10:54:57.923Z,35.88
2022-08-04T10:56:07.517Z,41.33
2022-08-04T10:56:58.919Z,43.94
2022-08-04T10:57:57.917Z,37.62
2022-08-04T10:58:57.940Z,46.52
2022-08-04T11:00:00.329Z,46.96
2022-08-04T11:00:58.909Z,42.59
2022-08-04T11:02:02.732Z,45.32
2022-08-04T11:02:57.985Z,42.95
2022-08-04T11:03:57.913Z,40.51
2022-08-04T11:04:57.906Z,44.69
2022-08-04T11:05:57.882Z,42.65
2022-08-04T11:06:57.881Z,44.15
2022-08-04T11:07:57.873Z,45.15
2022-08-04T11:08:57.888Z,44.72
2022-08-04T11:09:57.864Z,44.30
2022-08-04T11:10:57.860Z,37.53
2022-08-04T11:12:01.368Z,40.44
2022-08-04T11:12:57.847Z,43.88
2022-08-04T11:13:57.906Z,39.91
2022-08-04T11:14:57.839Z,35.69
2022-08-04T11:15:57.861Z,39.27
2022-08-04T11:16:57.834Z,41.38
2022-08-04T11:17:57.835Z,42.14
2022-08-04T11:18:57.844Z,46.18
2022-08-04T11:20:18.296Z,39.77
2022-08-04T11:20:58.822Z,40.10
2022-08-04T11:21:57.816Z,39.89
2022-08-04T11:22:57.819Z,47.07
2022-08-04T11:23:57.825Z,41.39
2022-08-04T11:24:57.806Z,40.61
2022-08-04T11:25:57.805Z,37.03
2022-08-04T11:26:57.812Z,44.59
2022-08-04T11:27:57.802Z,43.31
2022-08-04T11:29:03.120Z,42.66
2022-08-04T11:29:58.788Z,40.88
2022-08-04T11:30:57.787Z,41.51
2022-08-04T11:31:57.806Z,45.03
2022-08-04T11:32:57.774Z,48.96
2022-08-04T11:33:57.796Z,40.38
2022-08-04T11:34:57.774Z,43.00
2022-08-04T11:35:57.770Z,39.48
2022-08-04T11:36:57.763Z,40.56
2022-08-04T11:37:57.758Z,43.33
2022-08-04T11:38:57.855Z,42.51
2022-08-04T11:39:57.750Z,46.92
2022-08-04T11:41:02.982Z,41.90
2022-08-04T11:41:58.737Z,46.05
2022-08-04T11:42:57.733Z,47.11
2022-08-04T11:44:03.373Z,50.30
2022-08-04T11:44:58.739Z,46.55
2022-08-04T11:45:57.727Z,39.72
2022-08-04T11:46:57.720Z,43.86
2022-08-04T11:47:57.711Z,45.69
2022-08-04T11:48:57.707Z,49.77
2022-08-04T11:49:58.290Z,49.32
2022-08-04T11:50:57.700Z,50.89
2022-08-04T11:51:57.723Z,45.10
2022-08-04T11:52:57.691Z,45.27
2022-08-04T11:53:57.708Z,44.31
2022-08-04T11:54:57.681Z,44.19
2022-08-04T11:56:08.120Z,43.80
2022-08-04T11:56:58.677Z,47.45
2022-08-04T11:57:57.738Z,46.95
2022-08-04T11:58:57.974Z,47.59
2022-08-04T11:59:59.517Z,43.20
2022-08-04T12:00:58.663Z,44.15
2022-08-04T12:01:57.800Z,47.01
2022-08-04T12:02:57.652Z,45.27
2022-08-04T12:03:59.785Z,39.43
2022-08-04T12:04:57.647Z,46.74
2022-08-04T12:05:57.643Z,43.71
2022-08-04T12:07:21.837Z,44.40
2022-08-04T12:07:58.639Z,37.15
2022-08-04T12:08:57.632Z,40.50
2022-08-04T12:09:57.643Z,45.84
2022-08-04T12:10:57.619Z,47.69
2022-08-04T12:11:57.617Z,46.26
2022-08-04T12:12:57.611Z,42.97
2022-08-04T12:14:00.703Z,47.94
2022-08-04T12:14:57.615Z,45.48
2022-08-04T12:15:57.599Z,47.72
2022-08-04T12:16:57.592Z,50.10
2022-08-04T12:17:57.594Z,48.66
2022-08-04T12:18:57.645Z,45.80
2022-08-04T12:20:03.999Z,47.91
2022-08-04T12:20:58.577Z,40.88
2022-08-04T12:21:57.575Z,44.71
2022-08-04T12:22:57.563Z,44.87
2022-08-04T12:24:00.606Z,46.30
2022-08-04T12:24:57.576Z,49.34
2022-08-04T12:25:57.553Z,44.05
2022-08-04T12:26:57.544Z,43.32
2022-08-04T12:27:57.547Z,45.18
2022-08-04T12:29:12.793Z,46.90
2022-08-04T12:30:59.730Z,44.89
2022-08-04T12:31:03.266Z,46.05
2022-08-04T12:31:58.543Z,44.70
2022-08-04T12:32:57.519Z,41.77
2022-08-04T12:34:04.718Z,43.98
2022-08-04T12:34:58.518Z,46.62
2022-08-04T12:36:10.227Z,44.93
2022-08-04T12:36:58.495Z,45.31
2022-08-04T12:37:57.492Z,40.69
2022-08-04T12:38:57.542Z,48.69
2022-08-04T12:40:27.514Z,47.79
2022-08-04T12:40:58.484Z,44.45
2022-08-04T12:41:57.470Z,47.25
2022-08-04T12:42:59.914Z,43.72
2022-08-04T12:43:57.469Z,46.64
2022-08-04T12:44:57.462Z,41.73
2022-08-04T12:45:57.447Z,44.66
2022-08-04T12:47:27.402Z,49.07
2022-08-04T12:47:58.437Z,39.28
2022-08-04T12:48:57.431Z,47.66
2022-08-04T12:50:01.294Z,43.86
2022-08-04T12:50:57.421Z,44.02
2022-08-04T12:52:07.759Z,47.25